Pennock, MN (56279)

2:19 PM CDT on May 24, 2015 (GMT -0500)
Lake Florida | | Change Station
CLOSE
Current Station
Personal Weather Station
Location: Spicer, MN
Elevation: 1129 ft
Nearby Weather Stations

Elev 1129 ft 45.25 °N, 95.07 °W | Updated 2 seconds ago

Mostly Cloudy
Mostly Cloudy
60.8 °F
Feels Like 60.8 °F
N
7.6
Wind Variable Wind from ESE
Gusts 12.5 mph

Today
High -- | Low -- °F
--% Chance of Precip.
Yesterday
High -- | Low -- °F
Precip. -- in
5:42 AM 8:53 PM
Waxing Crescent, 41% visible
Pressure 29.96 in
Visibility 3.0 miles
Clouds Clear
Dew Point 58 °F
Humidity 91%
Rainfall 0.00 in
Snow Depth Not available.
UV 10 out of 12
Pollen 5.60 out of 12
Air Quality Not available.
Flu Activity Sporadic
METAR KBDH 241915Z AUTO 07012KT 3SM -RA CLR 16/14 A2996 RMK AO2

More Conditions Fewer Conditions

Pressure 29.96 in
Visibility 3.0 miles
Clouds Clear
Dew Point 58 °F
Humidity 91%
Rainfall 0.00 in
Snow Depth Not available.
UV 10 out of 12
Pollen 5.60 out of 12
Air Quality Not available.
Flu Activity Sporadic
METAR KBDH 241915Z AUTO 07012KT 3SM -RA CLR 16/14 A2996 RMK AO2

More Conditions Fewer Conditions

10-Day Weather Forecast

Almanac

Astronomy

May. 24, 2015 Rise Set
Actual Time
Civil Twilight
Nautical Twilight
Astronomical Twilight
Moon
Length of Visible Light
Length of Day
Tomorrow will be .
, % of the Moon is Illuminated

Today's Extremes

State Highs State Lows

Community

WunderPhotos

Upload Photos

1,823,832 photos uploaded!

WunderBlogs® & News

Nearby

Air Quality

  Air Quality AQ Index Pollutant
Not available.

Snow Depth

Station Depth Elevation

Earthquake Activity

City Distance Mag. Time & Date
Minimum magnitude displayed is 2.5.

Coastal Water Temperatures

Place Temperature

Stations

Nearby Weather Stations

Station Location Temp. Windchill Dew Point Humidity Wind Precip. Elev Updated Type